Time;durP1;ratioP1;P1;durP2;ratioP2;P2;SDS_P1;SDS_P2;PMS_P1;PMS_P2;Temp;Humidity;BMP_temperature;BMP_pressure;BME280_temperature;BME280_humidity;BME280_pressure;Samples;Min_cycle;Max_cycle;Signal;HPM_P1;HPM_P2
2022/09/01 00:01:49;;;;;;;1.40;1.03;;;15.70;99.90;;;;;;5049333;28;20179;-69
2022/09/01 00:04:20;;;;;;;2.43;1.30;;;15.70;99.90;;;;;;5069328;28;20643;-67
2022/09/01 00:06:46;;;;;;;3.03;1.10;;;15.70;99.90;;;;;;5049303;28;20190;-69
2022/09/01 00:09:14;;;;;;;2.83;1.00;;;15.70;99.90;;;;;;5069417;28;20856;-68
2022/09/01 00:11:42;;;;;;;1.43;1.33;;;15.70;99.90;;;;;;5066882;28;20190;-68
2022/09/01 00:14:09;;;;;;;1.20;1.10;;;15.70;99.90;;;;;;5069147;28;20599;-68
2022/09/01 00:16:34;;;;;;;1.00;0.90;;;15.60;99.90;;;;;;5066094;28;20708;-68
2022/09/01 00:19:00;;;;;;;1.20;1.10;;;15.70;99.90;;;;;;5061130;28;20184;-64
2022/09/01 00:21:30;;;;;;;1.60;1.10;;;15.70;99.90;;;;;;5068796;28;20205;-66
2022/09/01 00:23:56;;;;;;;1.00;1.00;;;15.70;99.90;;;;;;5057783;28;20241;-66
2022/09/01 00:26:22;;;;;;;1.93;1.20;;;15.70;99.90;;;;;;5064459;28;20604;-66
2022/09/01 00:28:48;;;;;;;1.90;0.80;;;15.70;99.90;;;;;;5066339;28;20221;-66
2022/09/01 00:31:13;;;;;;;0.97;0.87;;;15.70;99.90;;;;;;5069225;28;20186;-66
2022/09/01 00:33:40;;;;;;;3.23;1.30;;;15.70;99.90;;;;;;5064003;28;20718;-67
2022/09/01 00:36:06;;;;;;;8.93;1.00;;;15.70;99.90;;;;;;5065735;28;20194;-67
2022/09/01 00:38:32;;;;;;;3.67;0.90;;;15.70;99.90;;;;;;5051643;28;20673;-67
2022/09/01 00:40:59;;;;;;;2.63;0.77;;;15.60;99.90;;;;;;5068298;28;20186;-67
2022/09/01 00:43:47;;;;;;;1.63;1.20;;;15.60;99.90;;;;;;5062113;28;21079;-66
2022/09/01 00:46:19;;;;;;;0.83;0.83;;;15.70;99.90;;;;;;5062876;28;20182;-66
2022/09/01 00:48:47;;;;;;;1.57;1.10;;;15.60;99.90;;;;;;5047133;28;20195;-66
2022/09/01 00:51:13;;;;;;;1.97;1.07;;;15.60;99.90;;;;;;5068432;28;20572;-66
2022/09/01 00:53:42;;;;;;;1.80;1.00;;;15.50;99.90;;;;;;5063761;28;20199;-65
2022/09/01 00:56:08;;;;;;;0.70;0.70;;;15.50;99.90;;;;;;5068694;28;20202;-65
2022/09/01 00:58:36;;;;;;;3.83;0.90;;;15.50;99.90;;;;;;5062844;28;20190;-66
2022/09/01 01:01:02;;;;;;;2.20;1.20;;;15.50;99.90;;;;;;5068427;28;20285;-66
2022/09/01 01:03:29;;;;;;;0.80;0.80;;;15.40;99.90;;;;;;5061576;28;20225;-66
2022/09/01 01:05:57;;;;;;;1.47;0.80;;;15.40;99.90;;;;;;5068310;28;20271;-65
2022/09/01 01:08:32;;;;;;;1.17;0.60;;;15.40;99.90;;;;;;5060573;28;20198;-65
2022/09/01 01:11:00;;;;;;;1.77;0.83;;;15.50;99.90;;;;;;5048429;28;20183;-65
2022/09/01 01:13:27;;;;;;;0.90;0.90;;;15.40;99.90;;;;;;5060391;28;20735;-63
2022/09/01 01:15:53;;;;;;;1.87;0.90;;;15.40;99.90;;;;;;5068393;28;20190;-66
2022/09/01 01:18:18;;;;;;;0.90;0.87;;;15.40;99.90;;;;;;5059872;28;20609;-64
2022/09/01 01:23:44;;;;;;;2.13;1.13;;;15.40;99.90;;;;;;5060944;28;20229;-64
2022/09/01 01:26:10;;;;;;;2.40;1.10;;;15.40;99.90;;;;;;5048210;28;20596;-65
2022/09/01 01:28:38;;;;;;;0.87;0.87;;;15.40;99.90;;;;;;5065519;28;20205;-64
2022/09/01 01:31:14;;;;;;;2.67;0.93;;;15.30;99.90;;;;;;5048552;28;20183;-65
2022/09/01 01:33:46;;;;;;;1.90;1.00;;;15.20;99.90;;;;;;5061228;28;20212;-65
2022/09/01 01:36:15;;;;;;;1.93;1.30;;;15.20;99.90;;;;;;5068017;28;20201;-65
2022/09/01 01:38:43;;;;;;;2.30;0.80;;;15.10;99.90;;;;;;5061294;28;20269;-65
2022/09/01 01:41:12;;;;;;;1.40;1.30;;;15.10;99.90;;;;;;5067922;28;20193;-66
2022/09/01 01:43:38;;;;;;;2.00;1.00;;;15.00;99.90;;;;;;5061114;28;20237;-66
2022/09/01 01:46:07;;;;;;;2.30;0.93;;;15.00;99.90;;;;;;5062724;28;20665;-66
2022/09/01 01:48:35;;;;;;;1.00;0.90;;;15.00;99.90;;;;;;5045778;28;20771;-66
2022/09/01 01:51:03;;;;;;;2.10;1.23;;;15.00;99.90;;;;;;5067240;28;20526;-65
2022/09/01 01:53:29;;;;;;;1.87;0.90;;;15.00;99.90;;;;;;5059375;28;20395;-66
2022/09/01 01:55:57;;;;;;;1.30;0.90;;;15.00;99.90;;;;;;5067574;28;20190;-66
2022/09/01 01:58:24;;;;;;;1.10;1.10;;;14.90;99.90;;;;;;5058263;28;20240;-65
2022/09/01 02:00:52;;;;;;;1.30;1.03;;;14.80;99.90;;;;;;5067635;28;20261;-65
2022/09/01 02:03:23;;;;;;;0.80;0.80;;;14.80;99.90;;;;;;5057266;28;20214;-66
2022/09/01 02:05:51;;;;;;;1.33;1.00;;;14.80;99.90;;;;;;5047680;28;20183;-66
2022/09/01 02:08:19;;;;;;;1.80;0.90;;;14.70;99.90;;;;;;5064975;28;20197;-66
2022/09/01 02:10:46;;;;;;;2.83;1.00;;;14.70;99.90;;;;;;5047749;28;20195;-65
2022/09/01 02:13:15;;;;;;;1.30;1.07;;;14.80;99.90;;;;;;5054552;28;20667;-65
2022/09/01 02:15:52;;;;;;;1.30;1.20;;;14.80;99.90;;;;;;5067263;28;20569;-66
2022/09/01 02:18:25;;;;;;;2.30;1.23;;;14.80;99.90;;;;;;5056425;28;20725;-66
2022/09/01 02:20:51;;;;;;;4.23;1.03;;;14.70;99.90;;;;;;5047295;28;20187;-66
2022/09/01 02:23:22;;;;;;;1.10;1.00;;;14.80;99.90;;;;;;5064759;28;20206;-65
2022/09/01 02:25:49;;;;;;;1.57;1.13;;;14.70;99.90;;;;;;5047586;28;20187;-65
2022/09/01 02:28:17;;;;;;;0.90;0.90;;;14.70;99.90;;;;;;5064929;28;20202;-66
2022/09/01 02:30:44;;;;;;;4.57;1.20;;;14.60;99.90;;;;;;5047877;28;20284;-67
2022/09/01 02:33:10;;;;;;;2.67;1.43;;;14.50;99.90;;;;;;5064605;28;20355;-66
2022/09/01 02:35:36;;;;;;;0.87;0.83;;;14.40;99.90;;;;;;5067135;28;20182;-66
2022/09/01 02:38:04;;;;;;;2.10;1.17;;;14.40;99.90;;;;;;5045962;28;20199;-66
2022/09/01 02:40:31;;;;;;;2.97;0.90;;;14.30;99.90;;;;;;5070670;28;20186;-66
2022/09/01 02:42:58;;;;;;;1.67;1.10;;;14.20;99.90;;;;;;5056830;28;20221;-66
2022/09/01 02:45:26;;;;;;;1.17;0.97;;;14.20;99.90;;;;;;5071227;28;20267;-66
2022/09/01 02:47:52;;;;;;;2.20;1.43;;;14.20;99.90;;;;;;5049480;28;20518;-66
2022/09/01 02:50:19;;;;;;;3.33;1.33;;;14.20;99.90;;;;;;5061782;28;20230;-66
2022/09/01 02:52:47;;;;;;;5.77;1.07;;;14.10;99.90;;;;;;5049832;28;20233;-66
2022/09/01 02:55:13;;;;;;;1.27;1.00;;;14.00;99.90;;;;;;5051244;28;20210;-66
2022/09/01 02:57:39;;;;;;;0.93;0.90;;;14.00;99.90;;;;;;5068209;28;20206;-66
2022/09/01 03:00:19;;;;;;;1.17;1.17;;;13.90;99.90;;;;;;5071457;28;20170;-66
2022/09/01 03:02:46;;;;;;;1.80;1.10;;;13.80;99.90;;;;;;5054061;28;20217;-66
2022/09/01 03:05:15;;;;;;;2.97;1.17;;;13.70;99.90;;;;;;5071037;28;20174;-66
2022/09/01 03:07:41;;;;;;;3.93;1.40;;;13.60;99.90;;;;;;5049052;28;20701;-66
2022/09/01 03:10:08;;;;;;;1.33;1.20;;;13.60;99.90;;;;;;5051092;28;20175;-66
2022/09/01 03:12:34;;;;;;;1.47;1.37;;;13.50;99.90;;;;;;5068404;28;20574;-65
2022/09/01 03:14:59;;;;;;;2.73;1.03;;;13.50;99.90;;;;;;5070507;28;20182;-65
2022/09/01 03:17:25;;;;;;;1.60;1.50;;;13.50;99.90;;;;;;5068363;28;20194;-66
2022/09/01 03:19:50;;;;;;;3.93;1.60;;;13.50;99.90;;;;;;5070536;28;20288;-66
2022/09/01 03:22:16;;;;;;;1.80;1.40;;;13.50;99.90;;;;;;5068382;28;20186;-65
2022/09/01 03:24:42;;;;;;;1.87;1.30;;;13.30;99.90;;;;;;5070463;28;20580;-65
2022/09/01 03:27:10;;;;;;;2.47;1.50;;;13.30;99.90;;;;;;5070155;28;20196;-66
2022/09/01 03:29:37;;;;;;;1.40;1.27;;;13.30;99.90;;;;;;5068720;28;20198;-65
2022/09/01 03:32:03;;;;;;;1.30;1.00;;;13.20;99.90;;;;;;5070151;28;20194;-65
2022/09/01 03:34:33;;;;;;;1.30;1.20;;;13.20;99.90;;;;;;5067559;28;20280;-66
2022/09/01 03:36:58;;;;;;;2.73;1.70;;;13.20;99.90;;;;;;5070017;28;20653;-65
2022/09/01 03:39:24;;;;;;;1.17;1.07;;;13.10;99.90;;;;;;5066975;28;20204;-65
2022/09/01 03:41:49;;;;;;;2.27;1.40;;;13.10;99.90;;;;;;5069992;28;20667;-65
2022/09/01 03:44:15;;;;;;;1.80;1.37;;;13.00;99.90;;;;;;5065609;28;20222;-65
2022/09/01 03:46:42;;;;;;;1.63;1.30;;;12.90;99.90;;;;;;5059956;28;20411;-69
2022/09/01 03:49:11;;;;;;;1.80;1.33;;;12.90;99.90;;;;;;5053068;28;20194;-64
2022/09/01 03:51:37;;;;;;;3.77;1.77;;;12.80;99.90;;;;;;5068732;28;20236;-66
2022/09/01 03:54:03;;;;;;;5.37;1.60;;;12.80;99.90;;;;;;5063030;28;20207;-65
2022/09/01 03:56:28;;;;;;;1.93;1.07;;;12.80;99.90;;;;;;5069734;28;20198;-65
2022/09/01 03:58:56;;;;;;;1.47;1.37;;;12.80;99.90;;;;;;5061735;28;20205;-64
2022/09/01 04:01:23;;;;;;;4.37;1.73;;;12.80;99.90;;;;;;5069479;28;20203;-61
2022/09/01 04:03:50;;;;;;;1.23;1.20;;;12.80;99.90;;;;;;5060675;28;20218;-62
2022/09/01 04:06:18;;;;;;;2.27;1.80;;;12.80;99.90;;;;;;5069600;28;20651;-64
2022/09/01 04:08:45;;;;;;;1.80;1.70;;;12.70;99.90;;;;;;5059704;28;20263;-64
2022/09/01 04:11:22;;;;;;;1.57;1.47;;;12.80;99.90;;;;;;5069632;28;20194;-62
2022/09/01 04:13:48;;;;;;;3.17;1.77;;;12.80;99.90;;;;;;5059665;28;20574;-62
2022/09/01 04:19:18;;;;;;;1.57;1.47;;;12.70;99.90;;;;;;5062778;28;20205;-63
2022/09/01 04:21:46;;;;;;;3.17;2.03;;;12.70;99.90;;;;;;5049650;28;20668;-63
2022/09/01 04:24:14;;;;;;;3.73;2.60;;;12.70;99.90;;;;;;5062396;28;20594;-63
2022/09/01 04:26:40;;;;;;;3.43;2.20;;;12.70;99.90;;;;;;5049640;28;20693;-63
2022/09/01 04:29:07;;;;;;;3.43;2.23;;;12.70;99.90;;;;;;5052600;28;20216;-62
2022/09/01 04:31:35;;;;;;;2.47;2.27;;;12.70;99.90;;;;;;5068818;28;20200;-62
2022/09/01 04:34:01;;;;;;;2.03;1.30;;;12.70;99.90;;;;;;5060976;28;20259;-62
2022/09/01 04:36:32;;;;;;;2.73;2.37;;;12.70;99.90;;;;;;5069261;28;20193;-63
2022/09/01 04:39:00;;;;;;;4.17;3.20;;;12.60;99.90;;;;;;5067622;28;20228;-62
2022/09/01 04:41:32;;;;;;;7.40;2.87;;;12.60;99.90;;;;;;5049275;28;20193;-62
2022/09/01 04:44:03;;;;;;;6.70;2.00;;;12.70;99.90;;;;;;5059391;28;20221;-62
2022/09/01 04:46:31;;;;;;;2.37;2.27;;;12.70;99.90;;;;;;5048530;28;20195;-62
2022/09/01 04:48:58;;;;;;;1.73;1.60;;;12.70;99.90;;;;;;5054061;28;20614;-62
2022/09/01 04:51:26;;;;;;;6.40;1.93;;;12.70;99.90;;;;;;5048898;28;20596;-62
2022/09/01 04:53:54;;;;;;;2.33;1.70;;;12.70;99.90;;;;;;5066616;28;20755;-62
2022/09/01 04:56:21;;;;;;;3.00;1.83;;;12.80;99.90;;;;;;5048704;28;20186;-62
2022/09/01 04:58:50;;;;;;;2.00;1.67;;;12.70;99.90;;;;;;5066100;28;20610;-62
2022/09/01 05:01:19;;;;;;;1.97;1.83;;;12.80;99.90;;;;;;5067851;28;20935;-62
2022/09/01 05:03:47;;;;;;;4.93;1.80;;;12.70;99.90;;;;;;5066487;28;20297;-62
2022/09/01 05:06:18;;;;;;;4.13;1.90;;;12.70;99.90;;;;;;5048681;28;20191;-62
2022/09/01 05:08:45;;;;;;;2.80;2.10;;;12.70;99.90;;;;;;5065983;28;20191;-62
2022/09/01 05:11:11;;;;;;;1.80;1.60;;;12.80;99.90;;;;;;5068345;28;20186;-62
2022/09/01 05:13:40;;;;;;;2.97;1.90;;;12.80;99.90;;;;;;5046741;28;20248;-62
2022/09/01 05:16:11;;;;;;;3.37;1.80;;;12.80;99.90;;;;;;5067797;28;20240;-62
2022/09/01 05:18:39;;;;;;;2.10;1.90;;;12.90;99.90;;;;;;5055022;28;20281;-62
2022/09/01 05:21:09;;;;;;;1.63;1.53;;;12.90;99.90;;;;;;5068024;28;20186;-62
2022/09/01 05:23:39;;;;;;;1.60;1.50;;;12.90;99.90;;;;;;5046274;28;20593;-62
2022/09/01 05:26:15;;;;;;;2.40;1.60;;;12.90;99.90;;;;;;5067792;28;20202;-63
2022/09/01 05:28:42;;;;;;;4.70;2.10;;;13.00;99.90;;;;;;5055136;28;20229;-62
2022/09/01 05:31:08;;;;;;;1.80;1.63;;;13.00;99.90;;;;;;5048292;28;20201;-63
2022/09/01 05:33:35;;;;;;;3.13;1.67;;;13.00;99.90;;;;;;5065250;28;20306;-64
2022/09/01 05:36:06;;;;;;;3.20;2.10;;;13.10;99.90;;;;;;5067705;28;20201;-64
2022/09/01 05:38:32;;;;;;;1.47;1.37;;;13.10;99.90;;;;;;5045892;28;20214;-64
2022/09/01 05:41:02;;;;;;;3.20;1.90;;;13.10;99.90;;;;;;5047643;28;20187;-62
2022/09/01 05:43:29;;;;;;;2.53;1.77;;;13.20;99.90;;;;;;5065596;28;20740;-64
2022/09/01 05:45:57;;;;;;;2.93;1.53;;;13.20;99.90;;;;;;5067127;28;20590;-63
2022/09/01 05:48:23;;;;;;;2.60;2.37;;;13.20;99.90;;;;;;5065615;28;20201;-64
2022/09/01 05:50:51;;;;;;;3.13;1.80;;;13.20;99.90;;;;;;5067248;28;20490;-63
2022/09/01 05:53:16;;;;;;;1.60;1.50;;;13.30;99.90;;;;;;5065388;28;20194;-63
2022/09/01 05:55:43;;;;;;;2.30;1.30;;;13.40;99.90;;;;;;5067789;28;20607;-62
2022/09/01 05:58:13;;;;;;;1.47;1.33;;;13.50;99.90;;;;;;5065383;28;20212;-63
2022/09/01 06:00:47;;;;;;;1.70;1.60;;;13.50;99.90;;;;;;5067535;28;20295;-64
2022/09/01 06:03:14;;;;;;;2.50;1.50;;;13.60;99.90;;;;;;5049303;28;20607;-64
2022/09/01 06:05:41;;;;;;;4.53;1.40;;;13.70;99.90;;;;;;5067623;28;20182;-63
2022/09/01 06:08:09;;;;;;;4.07;1.57;;;13.80;99.90;;;;;;5046139;28;20190;-63
2022/09/01 06:10:38;;;;;;;3.40;1.60;;;13.80;99.90;;;;;;5047338;28;20170;-63
2022/09/01 06:13:07;;;;;;;3.47;2.50;;;13.90;99.90;;;;;;5064589;28;20332;-65
2022/09/01 06:15:35;;;;;;;4.03;1.77;;;14.10;99.90;;;;;;5067384;28;20256;-64
2022/09/01 06:18:01;;;;;;;2.43;1.50;;;14.20;99.90;;;;;;5063872;28;20292;-62
2022/09/01 06:20:26;;;;;;;3.60;2.97;;;14.20;99.90;;;;;;5067232;28;20459;-65
2022/09/01 06:22:52;;;;;;;4.33;1.63;;;14.30;99.90;;;;;;5065009;28;20558;-64
2022/09/01 06:25:19;;;;;;;1.37;1.27;;;14.40;99.90;;;;;;5067716;28;20174;-63
2022/09/01 06:27:46;;;;;;;1.77;1.00;;;14.50;99.90;;;;;;5067060;28;20193;-64
2022/09/01 06:30:19;;;;;;;1.60;1.40;;;14.60;99.90;;;;;;5065082;28;20198;-65
2022/09/01 06:32:45;;;;;;;2.50;1.40;;;14.70;99.90;;;;;;5046678;28;20340;-67
2022/09/01 06:35:12;;;;;;;0.97;0.97;;;14.80;99.90;;;;;;5056691;28;20575;-67
2022/09/01 06:37:38;;;;;;;2.77;1.43;;;15.00;99.90;;;;;;5066644;28;20244;-67
2022/09/01 06:40:06;;;;;;;2.77;1.13;;;15.20;99.90;;;;;;5063579;28;20202;-67
2022/09/01 06:42:34;;;;;;;2.00;1.23;;;15.30;99.90;;;;;;5066718;28;20210;-67
2022/09/01 06:45:00;;;;;;;5.23;2.40;;;15.40;99.90;;;;;;5062623;28;20276;-66
2022/09/01 06:47:27;;;;;;;1.13;1.00;;;15.50;99.90;;;;;;5066648;28;20205;-67
2022/09/01 06:49:54;;;;;;;2.60;1.33;;;15.60;99.90;;;;;;5061293;28;20230;-68
2022/09/01 06:52:22;;;;;;;1.30;1.17;;;15.70;99.90;;;;;;5047152;28;20199;-67
2022/09/01 06:54:49;;;;;;;3.07;1.30;;;15.80;99.90;;;;;;5049218;28;20222;-67
2022/09/01 06:57:15;;;;;;;0.83;0.70;;;15.90;99.90;;;;;;5066038;28;20186;-67
2022/09/01 06:59:41;;;;;;;3.40;2.10;;;16.00;99.90;;;;;;5059671;28;20205;-66
2022/09/01 07:02:07;;;;;;;3.27;1.13;;;16.10;99.90;;;;;;5066302;28;20646;-65
2022/09/01 07:04:33;;;;;;;2.13;1.37;;;16.20;99.90;;;;;;5058373;28;20241;-65
2022/09/01 07:06:59;;;;;;;4.93;1.27;;;16.30;99.90;;;;;;5066240;28;20230;-66
2022/09/01 07:09:25;;;;;;;2.23;1.00;;;16.40;99.90;;;;;;5057152;28;20205;-64
2022/09/01 07:11:51;;;;;;;3.73;0.90;;;16.50;99.90;;;;;;5066145;28;20278;-63
2022/09/01 07:14:18;;;;;;;2.00;0.70;;;16.50;99.90;;;;;;5045021;28;20203;-66
2022/09/01 07:16:43;;;;;;;1.10;0.90;;;16.60;99.90;;;;;;5065792;28;20237;-64
2022/09/01 07:19:13;;;;;;;2.20;0.97;;;16.60;99.90;;;;;;5045391;28;20723;-64
2022/09/01 07:21:40;;;;;;;3.37;1.73;;;16.70;99.90;;;;;;5066159;28;20198;-63
2022/09/01 07:24:05;;;;;;;1.20;0.90;;;16.70;99.90;;;;;;5045169;28;20308;-64
2022/09/01 07:26:34;;;;;;;1.33;0.90;;;16.70;99.90;;;;;;5069503;28;20215;-64
2022/09/01 07:29:02;;;;;;;2.53;0.90;;;16.80;99.90;;;;;;5048440;28;20209;-65
2022/09/01 07:31:41;;;;;;;1.70;1.07;;;16.90;99.90;;;;;;5069796;28;20603;-65
2022/09/01 07:34:12;;;;;;;4.57;1.20;;;17.00;99.90;;;;;;5048329;28;20289;-64
2022/09/01 07:36:39;;;;;;;2.40;0.70;;;17.00;99.90;;;;;;5050211;28;20206;-64
2022/09/01 07:39:05;;;;;;;2.57;0.70;;;17.10;99.90;;;;;;5048006;28;20249;-64
2022/09/01 07:41:33;;;;;;;0.83;0.80;;;17.20;99.90;;;;;;5069185;28;20194;-64
2022/09/01 07:44:00;;;;;;;1.37;1.03;;;17.20;99.90;;;;;;5046665;28;20318;-64
2022/09/01 07:46:25;;;;;;;1.47;0.63;;;17.30;99.90;;;;;;5057206;28;20186;-75
2022/09/01 07:48:55;;;;;;;1.80;1.50;;;17.40;99.90;;;;;;5067934;28;20707;-65
2022/09/01 07:51:22;;;;;;;2.17;1.10;;;17.40;99.90;;;;;;5070013;28;20243;-76
2022/09/01 07:53:49;;;;;;;0.83;0.83;;;17.50;99.90;;;;;;5067463;28;20206;-68
2022/09/01 07:56:17;;;;;;;0.90;0.80;;;17.60;99.90;;;;;;5069620;28;20182;-65
2022/09/01 07:58:44;;;;;;;3.93;0.97;;;17.70;99.90;;;;;;5047863;28;20288;-65
2022/09/01 08:01:12;;;;;;;3.20;0.83;;;17.70;99.90;;;;;;5053321;28;20177;-77
2022/09/01 08:03:38;;;;;;;1.03;1.03;;;17.70;99.90;;;;;;5063401;28;20832;-65
2022/09/01 08:06:11;;;;;;;1.30;0.70;;;17.70;99.90;;;;;;5053808;28;20176;-66
2022/09/01 08:08:38;;;;;;;1.10;0.63;;;17.90;99.90;;;;;;5047338;28;20194;-66
2022/09/01 08:11:04;;;;;;;1.33;0.90;;;17.90;99.90;;;;;;5058490;28;20176;-65
2022/09/01 08:13:30;;;;;;;0.80;0.80;;;17.90;99.90;;;;;;5066565;28;20198;-65
2022/09/01 08:15:56;;;;;;;0.90;0.90;;;18.00;99.90;;;;;;5069392;28;20186;-65
2022/09/01 08:18:21;;;;;;;0.87;0.73;;;18.10;99.90;;;;;;5047883;28;20198;-65
2022/09/01 08:20:47;;;;;;;1.63;0.93;;;18.10;99.90;;;;;;5059033;28;20183;-65
2022/09/01 08:23:18;;;;;;;1.80;0.80;;;18.20;99.90;;;;;;5068148;28;20198;-65
2022/09/01 08:25:45;;;;;;;0.73;0.63;;;18.20;99.90;;;;;;5049469;28;20288;-65
2022/09/01 08:28:12;;;;;;;0.57;0.57;;;18.30;99.90;;;;;;5068740;28;20192;-65
2022/09/01 08:30:40;;;;;;;2.33;0.63;;;18.40;99.90;;;;;;5067191;28;20201;-65
2022/09/01 08:33:06;;;;;;;2.63;1.00;;;18.50;99.90;;;;;;5049075;28;20321;-65
2022/09/01 08:35:31;;;;;;;1.87;0.87;;;18.60;99.90;;;;;;5048193;28;20371;-65
2022/09/01 08:37:57;;;;;;;1.20;0.83;;;18.60;99.90;;;;;;5067268;28;20188;-65
2022/09/01 08:40:24;;;;;;;1.90;0.93;;;18.70;99.90;;;;;;5064691;28;20210;-65
2022/09/01 08:43:05;;;;;;;1.30;0.80;;;18.70;99.90;;;;;;5069147;28;20695;-65
2022/09/01 08:45:37;;;;;;;0.70;0.70;;;18.70;99.90;;;;;;5067056;28;20193;-63
2022/09/01 08:48:19;;;;;;;1.60;1.37;;;18.80;99.90;;;;;;5048983;28;20254;-66
2022/09/01 08:50:54;;;;;;;2.33;1.00;;;18.80;99.90;;;;;;5066196;28;20802;-66
2022/09/01 08:53:48;;;;;;;2.47;0.87;;;18.90;99.90;;;;;;5048388;28;20584;-66
2022/09/01 08:56:17;;;;;;;1.20;1.07;;;19.10;99.90;;;;;;5045141;28;20214;-66
2022/09/01 08:58:42;;;;;;;2.10;1.20;;;19.10;99.70;;;;;;5049617;28;20316;-66
2022/09/01 09:01:15;;;;;;;0.93;0.63;;;19.20;99.60;;;;;;5068433;28;20265;-66
2022/09/01 09:04:02;;;;;;;2.00;1.20;;;19.20;99.80;;;;;;5049155;28;20627;-66
2022/09/01 09:06:35;;;;;;;0.87;0.87;;;19.20;99.50;;;;;;5068511;28;20269;-66
2022/09/01 09:09:02;;;;;;;0.60;0.50;;;19.30;98.60;;;;;;5050249;28;20186;-66
2022/09/01 09:11:57;;;;;;;0.43;0.40;;;19.40;99.00;;;;;;5068645;28;20178;-66
2022/09/01 09:14:59;;;;;;;1.90;1.03;;;19.40;98.10;;;;;;5054407;28;20225;-66
2022/09/01 09:17:33;;;;;;;1.33;0.70;;;19.40;98.30;;;;;;5048154;28;20190;-66
2022/09/01 09:20:00;;;;;;;1.43;0.90;;;19.40;98.70;;;;;;5053990;28;20265;-65
2022/09/01 09:22:25;;;;;;;2.13;1.10;;;19.40;99.10;;;;;;5067347;28;20202;-64
2022/09/01 09:25:06;;;;;;;1.93;1.20;;;19.50;99.10;;;;;;5058631;28;20258;-64
2022/09/01 09:27:38;;;;;;;3.33;0.77;;;19.60;98.30;;;;;;5048311;28;20193;-64
2022/09/01 09:30:19;;;;;;;1.70;0.73;;;19.70;98.30;;;;;;5058872;28;20201;-62
2022/09/01 09:32:47;;;;;;;1.10;0.80;;;19.80;98.30;;;;;;5062881;28;20740;-65
2022/09/01 09:35:28;;;;;;;0.80;0.80;;;19.90;98.50;;;;;;5065543;28;20687;-66
2022/09/01 09:37:53;;;;;;;1.43;0.60;;;19.90;98.30;;;;;;5048161;28;20581;-66
2022/09/01 09:40:24;;;;;;;1.00;0.90;;;20.00;98.10;;;;;;5060562;28;20201;-65
2022/09/01 09:42:52;;;;;;;0.87;0.80;;;20.10;97.20;;;;;;5067695;28;20215;-66
2022/09/01 09:45:25;;;;;;;2.63;0.83;;;20.00;96.70;;;;;;5061002;28;20223;-66
2022/09/01 09:47:53;;;;;;;1.83;1.20;;;19.90;96.70;;;;;;5066660;28;20249;-67
2022/09/01 09:50:27;;;;;;;0.57;0.57;;;19.70;97.70;;;;;;5060175;28;20229;-65
2022/09/01 09:53:17;;;;;;;1.90;0.90;;;19.70;97.20;;;;;;5047790;28;20309;-66
2022/09/01 09:55:54;;;;;;;0.53;0.53;;;19.70;97.20;;;;;;5063669;28;20206;-65
2022/09/01 09:58:25;;;;;;;0.67;0.60;;;19.70;97.60;;;;;;5067497;28;20190;-66
2022/09/01 10:01:20;;;;;;;1.83;0.70;;;19.70;96.50;;;;;;5064736;28;20195;-67
2022/09/01 10:03:51;;;;;;;1.27;0.90;;;19.80;96.30;;;;;;5047000;28;20220;-65
2022/09/01 10:06:43;;;;;;;1.93;0.80;;;19.90;96.80;;;;;;5061709;28;20231;-66
2022/09/01 10:09:29;;;;;;;0.87;0.80;;;19.90;96.00;;;;;;5054763;28;20285;-66
2022/09/01 10:11:56;;;;;;;0.60;0.60;;;20.00;96.50;;;;;;5059674;28;20208;-67
2022/09/01 10:14:36;;;;;;;4.10;1.10;;;20.00;96.60;;;;;;5050538;28;20199;-66
2022/09/01 10:17:08;;;;;;;2.00;1.00;;;20.30;96.70;;;;;;5064069;28;20240;-65
2022/09/01 10:19:34;;;;;;;1.83;0.73;;;20.50;95.40;;;;;;5053630;28;20282;-65
2022/09/01 10:22:01;;;;;;;1.90;1.10;;;20.60;95.70;;;;;;5047081;28;20182;-66
2022/09/01 10:24:35;;;;;;;1.30;0.77;;;20.90;93.70;;;;;;5058623;28;20691;-66
2022/09/01 10:27:22;;;;;;;4.67;0.63;;;21.20;93.40;;;;;;5056949;28;20184;-67
2022/09/01 10:29:56;;;;;;;1.27;0.60;;;21.30;92.10;;;;;;5058803;28;20212;-67
2022/09/01 10:32:28;;;;;;;2.10;0.70;;;21.20;92.70;;;;;;5048766;28;20260;-64
2022/09/01 10:34:54;;;;;;;1.17;0.70;;;21.30;92.50;;;;;;5055017;28;20299;-66
2022/09/01 10:37:22;;;;;;;1.50;0.60;;;21.50;91.70;;;;;;5047152;28;20244;-66
2022/09/01 10:40:09;;;;;;;0.50;0.47;;;21.60;91.70;;;;;;5063234;28;20202;-74
2022/09/01 10:42:34;;;;;;;1.57;0.60;;;21.70;90.30;;;;;;5067136;28;20193;-69
2022/09/01 10:45:00;;;;;;;0.87;0.77;;;22.00;90.50;;;;;;5046081;28;20194;-66
2022/09/01 10:47:36;;;;;;;0.30;0.30;;;22.20;90.10;;;;;;5066381;28;20193;-67
2022/09/01 10:50:21;;;;;;;0.57;0.57;;;22.30;89.50;;;;;;5045558;28;20751;-65
2022/09/01 10:52:46;;;;;;;3.27;0.40;;;22.10;87.30;;;;;;5047379;28;20558;-65
2022/09/01 10:55:36;;;;;;;3.17;1.00;;;22.10;89.30;;;;;;5064811;28;20198;-68
2022/09/01 10:58:24;;;;;;;1.63;0.90;;;22.20;86.50;;;;;;5047437;28;20191;-68
2022/09/01 11:00:52;;;;;;;1.83;1.03;;;22.10;85.80;;;;;;5065247;28;20209;-79
2022/09/01 11:03:17;;;;;;;1.03;0.80;;;22.30;86.60;;;;;;5070960;28;20205;-68
2022/09/01 11:05:52;;;;;;;0.80;0.80;;;22.50;82.80;;;;;;5065608;28;20190;-66
2022/09/01 11:08:43;;;;;;;0.80;0.57;;;22.60;84.00;;;;;;5070743;28;20255;-66
2022/09/01 11:11:20;;;;;;;0.60;0.60;;;22.70;82.10;;;;;;5068418;28;20594;-66
2022/09/01 11:13:48;;;;;;;1.60;0.80;;;22.70;81.00;;;;;;5051292;28;20297;-66
2022/09/01 11:16:34;;;;;;;1.00;0.63;;;22.50;81.10;;;;;;5068392;28;20236;-68
2022/09/01 11:19:54;;;;;;;1.33;0.90;;;22.50;80.70;;;;;;5067950;28;20194;-68
2022/09/01 11:22:30;;;;;;;0.67;0.50;;;22.60;80.00;;;;;;5008174;28;20575;-67
2022/09/01 11:25:31;;;;;;;0.50;0.50;;;22.60;78.60;;;;;;5057006;28;20213;-67
2022/09/01 11:27:59;;;;;;;0.60;0.50;;;22.40;76.60;;;;;;5050539;28;20183;-68
2022/09/01 11:30:35;;;;;;;1.60;0.60;;;22.30;78.20;;;;;;5061060;28;20758;-67
2022/09/01 11:33:23;;;;;;;2.90;1.70;;;22.70;75.70;;;;;;5050439;28;20337;-69
2022/09/01 11:36:01;;;;;;;0.53;0.50;;;23.10;73.50;;;;;;5064540;28;20256;-68
2022/09/01 11:38:30;;;;;;;0.80;0.70;;;23.20;72.70;;;;;;5050312;28;20190;-67
2022/09/01 11:40:56;;;;;;;1.13;0.40;;;23.10;72.80;;;;;;5067752;28;20211;-68
2022/09/01 11:43:22;;;;;;;1.07;0.60;;;23.00;72.80;;;;;;5050631;28;20215;-68
2022/09/01 11:46:08;;;;;;;0.40;0.40;;;22.90;73.90;;;;;;5054114;28;20195;-70
2022/09/01 11:48:35;;;;;;;0.40;0.40;;;22.80;71.60;;;;;;5070256;28;20178;-68
2022/09/01 11:51:03;;;;;;;1.00;0.93;;;22.80;68.80;;;;;;5065383;28;20230;-68
2022/09/01 11:53:29;;;;;;;2.30;1.10;;;22.80;72.60;;;;;;5069496;28;20232;-67
2022/09/01 11:56:10;;;;;;;0.90;0.80;;;23.20;72.50;;;;;;5064452;28;20186;-69
2022/09/01 11:58:38;;;;;;;1.03;0.60;;;23.90;70.90;;;;;;5050176;28;20225;-67
2022/09/01 12:01:17;;;;;;;0.43;0.40;;;24.50;65.30;;;;;;5067323;28;20190;-67
2022/09/01 12:03:43;;;;;;;1.90;0.70;;;25.00;65.00;;;;;;5048416;28;20195;-68
2022/09/01 12:06:11;;;;;;;1.25;0.70;;;24.90;65.90;;;;;;5050062;28;20196;-67
2022/09/01 12:08:49;;;;;;;1.77;0.40;;;24.40;66.90;;;;;;5070114;28;20292;-68
2022/09/01 12:11:20;;;;;;;0.63;0.50;;;23.90;67.20;;;;;;5065728;28;20626;-68
2022/09/01 12:13:59;;;;;;;1.43;0.60;;;23.50;68.70;;;;;;5069991;28;20194;-67
2022/09/01 12:16:26;;;;;;;0.60;0.60;;;23.20;68.20;;;;;;5067615;28;20206;-67
2022/09/01 12:18:55;;;;;;;0.87;0.60;;;23.00;69.80;;;;;;5069941;28;20208;-67
2022/09/01 12:21:25;;;;;;;0.93;0.50;;;22.90;70.90;;;;;;5067161;28;20206;-67
2022/09/01 12:23:51;;;;;;;0.67;0.50;;;22.80;70.40;;;;;;5050029;28;20225;-67
2022/09/01 12:26:24;;;;;;;0.47;0.47;;;22.60;71.40;;;;;;5067299;28;20190;-67
2022/09/01 12:28:49;;;;;;;2.70;0.53;;;22.50;71.80;;;;;;5049653;28;20718;-67
2022/09/01 12:31:19;;;;;;;0.93;0.60;;;22.50;71.80;;;;;;5067038;28;20190;-67
2022/09/01 12:33:46;;;;;;;0.47;0.47;;;22.40;72.50;;;;;;5049633;28;20230;-68
2022/09/01 12:36:29;;;;;;;1.63;0.60;;;22.40;72.10;;;;;;5067493;28;20209;-67
2022/09/01 12:39:16;;;;;;;1.20;0.90;;;22.50;72.40;;;;;;5049748;28;20574;-67
2022/09/01 12:41:44;;;;;;;1.40;0.60;;;22.70;71.90;;;;;;5049365;28;20232;-67
2022/09/01 12:44:30;;;;;;;0.73;0.73;;;23.20;71.30;;;;;;5047773;28;20676;-67
2022/09/01 12:47:00;;;;;;;2.80;0.90;;;23.60;69.50;;;;;;5060232;28;20189;-68
2022/09/01 12:49:51;;;;;;;1.00;0.70;;;24.00;69.00;;;;;;5049545;28;20215;-68
2022/09/01 12:52:26;;;;;;;1.53;0.67;;;24.20;68.10;;;;;;5069160;28;20189;-67
2022/09/01 12:54:57;;;;;;;1.57;0.70;;;24.40;68.20;;;;;;5053060;28;20202;-67
2022/09/01 12:57:33;;;;;;;1.30;0.60;;;24.90;67.00;;;;;;5068841;28;20167;-67
2022/09/01 13:00:09;;;;;;;2.20;0.90;;;24.80;65.00;;;;;;5053870;28;20223;-68
2022/09/01 13:02:42;;;;;;;1.35;0.63;;;24.90;66.30;;;;;;5068867;28;20182;-68
2022/09/01 13:05:32;;;;;;;0.83;0.80;;;25.10;64.30;;;;;;5054808;28;20273;-67
2022/09/01 13:08:01;;;;;;;4.18;0.60;;;25.30;64.70;;;;;;5049404;28;20179;-67
2022/09/01 13:10:32;;;;;;;0.52;0.52;;;26.00;66.80;;;;;;5046689;28;20193;-67